Kristin D — C6XA6 — position and weather

sailwx.info

Track history (hours):
 
Tides and Currents Weather Stations Pressure Air Temp Water Temp Dewpoint Dewpoint Depression Visibility Wind Speed Wind Dir Waves Ship Positions

Kristin D

Last reported at 2014-Sep-30 12:33 UTC. Time now 2014-Sep-30 14:00 UTC.
Position N 51°41' E 004°36'.

Length 90 m; draft 4.2 m.

Type: Cargo ship. MMSI: 311003700.

Date/timePositionNaut miles runAvg speedWind from/ knotsBaromVisibWave heightAir tempDewpointWater temp
2014-Sep-30 12:33N 51°41' E 004°36'0 0.0
2014-Sep-30 10:06N 51°41' E 004°36'0 0.0
2014-Sep-30 08:27N 51°41' E 004°36'0 0.0
2014-Sep-30 07:33N 51°41' E 004°36'7 6.8
2014-Sep-30 06:34N 51°48' E 004°37'1111.1
2014-Sep-30 05:33N 51°52' E 004°20'1110.8
2014-Sep-30 04:33N 51°59' E 004°06'1211.8
2014-Sep-30 03:33N 52°01' E 003°47'8 8.1
2014-Sep-30 02:33N 52°09' E 003°46'9 8.7
2014-Sep-30 01:33N 52°18' E 003°47'9 8.8
2014-Sep-30 00:33N 52°26' E 003°50'50 9.6
2014-Sep-29 19:23N 53°12' E 004°25'8 8.9
2014-Sep-29 18:26N 53°20' E 004°29'3110.1
2014-Sep-29 15:23N 53°49' E 004°43'1110.9
2014-Sep-29 14:22N 54°00' E 004°48'1010.7
2014-Sep-29 13:24N 54°10' E 004°47'910.8
2014-Sep-29 12:31N 54°20' E 004°47'  
2014-Sep-25 19:25N 63°20' E 008°18'46 9.0
2014-Sep-25 14:17N 63°27' E 009°60'4 0.1
2014-Sep-24 07:19N 63°23' E 009°58'  
2014-Sep-21 06:31N 59°07' E 004°53'7 7.6
2014-Sep-21 05:33N 59°00' E 004°59'8 8.2
2014-Sep-21 04:33N 58°53' E 005°07'7 7.2
2014-Sep-21 03:33N 58°47' E 005°14'10 8.3
2014-Sep-21 02:23N 58°38' E 005°23'9 9.5
2014-Sep-21 01:30N 58°31' E 005°31'9 9.9
2014-Sep-21 00:33N 58°24' E 005°42'1110.7
2014-Sep-20 23:33N 58°17' E 005°58'10 9.6
2014-Sep-20 22:33N 58°11' E 006°13'66 9.5
2014-Sep-20 15:33N 58°04' E 008°18'1211.6
2014-Sep-20 14:33N 58°12' E 008°34'1211.0
2014-Sep-20 13:29N 58°21' E 008°47'  
Track history (hours):
 
Tides and Currents Weather Stations Pressure Air Temp Water Temp Dewpoint Dewpoint Depression Visibility Wind Speed Wind Dir Waves Ship Positions

Kristin D

Last reported at 2014-Sep-30 12:33 UTC. Time now 2014-Sep-30 14:00 UTC.
Position N 51°41' E 004°36'.

Length 90 m; draft 4.2 m.

Type: Cargo ship. MMSI: 311003700.

Date/timePositionNaut miles runAvg speedWind from/ knotsBaromVisibWave heightAir tempDewpointWater temp
2014-Sep-30 12:33N 51°41' E 004°36'0 0.0
2014-Sep-30 10:06N 51°41' E 004°36'0 0.0
2014-Sep-30 08:27N 51°41' E 004°36'0 0.0
2014-Sep-30 07:33N 51°41' E 004°36'7 6.8
2014-Sep-30 06:34N 51°48' E 004°37'1111.1
2014-Sep-30 05:33N 51°52' E 004°20'1110.8
2014-Sep-30 04:33N 51°59' E 004°06'1211.8
2014-Sep-30 03:33N 52°01' E 003°47'8 8.1
2014-Sep-30 02:33N 52°09' E 003°46'9 8.7
2014-Sep-30 01:33N 52°18' E 003°47'9 8.8
2014-Sep-30 00:33N 52°26' E 003°50'50 9.6
2014-Sep-29 19:23N 53°12' E 004°25'8 8.9
2014-Sep-29 18:26N 53°20' E 004°29'3110.1
2014-Sep-29 15:23N 53°49' E 004°43'1110.9
2014-Sep-29 14:22N 54°00' E 004°48'1010.7
2014-Sep-29 13:24N 54°10' E 004°47'910.8
2014-Sep-29 12:31N 54°20' E 004°47'  
2014-Sep-25 19:25N 63°20' E 008°18'46 9.0
2014-Sep-25 14:17N 63°27' E 009°60'4 0.1
2014-Sep-24 07:19N 63°23' E 009°58'  
2014-Sep-21 06:31N 59°07' E 004°53'7 7.6
2014-Sep-21 05:33N 59°00' E 004°59'8 8.2
2014-Sep-21 04:33N 58°53' E 005°07'7 7.2
2014-Sep-21 03:33N 58°47' E 005°14'10 8.3
2014-Sep-21 02:23N 58°38' E 005°23'9 9.5
2014-Sep-21 01:30N 58°31' E 005°31'9 9.9
2014-Sep-21 00:33N 58°24' E 005°42'1110.7
2014-Sep-20 23:33N 58°17' E 005°58'10 9.6
2014-Sep-20 22:33N 58°11' E 006°13'66 9.5
2014-Sep-20 15:33N 58°04' E 008°18'1211.6
2014-Sep-20 14:33N 58°12' E 008°34'1211.0
2014-Sep-20 13:29N 58°21' E 008°47'  

Dump ship's entire track history